createdAt,value
2018-07-03T00:01:51.238Z,41.87
2018-07-03T00:04:22.239Z,42.16
2018-07-03T00:06:52.423Z,42.40
2018-07-03T00:09:23.103Z,42.50
2018-07-03T00:11:53.128Z,42.36
2018-07-03T00:14:23.388Z,42.34
2018-07-03T00:16:58.804Z,42.49
2018-07-03T00:19:28.897Z,42.72
2018-07-03T00:21:58.910Z,42.86
2018-07-03T00:24:29.661Z,42.85
2018-07-03T00:26:59.728Z,43.01
2018-07-03T00:29:29.305Z,43.38
2018-07-03T00:31:59.907Z,43.64
2018-07-03T00:34:29.556Z,43.79
2018-07-03T00:36:59.843Z,43.76
2018-07-03T00:39:31.402Z,43.68
2018-07-03T00:42:00.956Z,43.79
2018-07-03T00:44:31.068Z,43.92
2018-07-03T00:47:01.558Z,43.88
2018-07-03T00:49:31.150Z,44.01
2018-07-03T00:52:01.211Z,44.27
2018-07-03T00:54:31.611Z,44.36
2018-07-03T00:57:01.628Z,44.44
2018-07-03T00:59:31.887Z,44.44
2018-07-03T01:02:02.516Z,44.62
2018-07-03T01:04:32.467Z,44.75
2018-07-03T01:07:02.621Z,44.91
2018-07-03T01:09:32.984Z,45.01
2018-07-03T01:12:03.849Z,44.95
2018-07-03T01:14:34.215Z,45.23
2018-07-03T01:17:05.067Z,45.42
2018-07-03T01:19:36.096Z,45.50
2018-07-03T01:22:06.607Z,45.54
2018-07-03T01:24:37.996Z,45.70
2018-07-03T01:27:08.110Z,45.92
2018-07-03T01:29:38.569Z,45.94
2018-07-03T01:32:09.464Z,45.98
2018-07-03T01:34:39.987Z,45.99
2018-07-03T01:37:10.584Z,46.03
2018-07-03T01:39:41.719Z,46.20
2018-07-03T01:42:12.160Z,46.21
2018-07-03T01:44:43.064Z,46.42
2018-07-03T01:47:14.062Z,46.37
2018-07-03T01:49:44.534Z,46.45
2018-07-03T01:52:14.848Z,46.47
2018-07-03T01:54:45.072Z,46.56
2018-07-03T01:57:15.164Z,46.91
2018-07-03T01:59:45.482Z,47.14
2018-07-03T02:02:15.970Z,47.29
2018-07-03T02:04:45.998Z,47.51
2018-07-03T02:07:16.032Z,47.66
2018-07-03T02:09:46.981Z,47.78
2018-07-03T02:12:17.018Z,48.14
2018-07-03T02:14:47.352Z,48.37
2018-07-03T02:17:17.828Z,48.67
2018-07-03T02:19:47.848Z,49.01
2018-07-03T02:22:18.147Z,49.52
2018-07-03T02:24:49.212Z,49.90
2018-07-03T02:27:19.813Z,49.91
2018-07-03T02:29:51.056Z,50.42
2018-07-03T02:32:21.502Z,50.54
2018-07-03T02:34:51.881Z,50.68
2018-07-03T02:37:22.513Z,51.15
2018-07-03T02:39:53.829Z,51.18
2018-07-03T02:42:24.396Z,51.10
2018-07-03T02:44:54.863Z,51.35
2018-07-03T02:47:25.497Z,51.19
2018-07-03T02:49:55.901Z,51.35
2018-07-03T02:52:26.415Z,51.30
2018-07-03T02:54:58.020Z,51.44
2018-07-03T02:57:28.938Z,51.79
2018-07-03T02:59:59.484Z,51.73
2018-07-03T03:02:30.427Z,52.21
2018-07-03T03:05:00.562Z,52.09
2018-07-03T03:07:31.040Z,52.47
2018-07-03T03:10:01.435Z,52.62
2018-07-03T03:12:31.869Z,52.60
2018-07-03T03:15:01.909Z,52.74
2018-07-03T03:17:32.085Z,53.02
2018-07-03T03:20:02.764Z,53.62
2018-07-03T03:22:33.363Z,53.61
2018-07-03T03:25:03.437Z,53.46
2018-07-03T03:27:34.336Z,53.74
2018-07-03T03:30:05.037Z,53.73
2018-07-03T03:32:38.938Z,54.05
2018-07-03T03:35:11.533Z,54.09
2018-07-03T03:37:41.736Z,54.24
2018-07-03T03:40:12.156Z,54.55
2018-07-03T03:42:42.686Z,54.60
2018-07-03T03:45:13.176Z,54.77
2018-07-03T03:47:43.221Z,54.85
2018-07-03T03:50:13.276Z,55.00
2018-07-03T03:52:43.828Z,55.12
2018-07-03T03:55:14.657Z,55.14
2018-07-03T03:57:44.758Z,55.02
2018-07-03T04:00:15.262Z,54.87
2018-07-03T04:02:46.029Z,54.75
2018-07-03T04:05:16.133Z,54.73
2018-07-03T04:07:46.259Z,54.70
2018-07-03T04:10:16.812Z,54.64
2018-07-03T04:12:47.488Z,54.58
2018-07-03T04:15:17.982Z,54.80
2018-07-03T04:17:48.364Z,55.16
2018-07-03T04:20:18.537Z,55.19
2018-07-03T04:22:49.000Z,55.29
2018-07-03T04:25:19.650Z,55.31
2018-07-03T04:27:50.077Z,55.36
2018-07-03T04:30:20.152Z,55.55
2018-07-03T04:32:50.520Z,55.51
2018-07-03T04:35:20.580Z,55.55
2018-07-03T04:37:50.972Z,55.47
2018-07-03T04:40:21.944Z,55.33
2018-07-03T04:42:52.017Z,55.33
2018-07-03T04:45:22.528Z,55.24
2018-07-03T04:47:52.905Z,55.13
2018-07-03T04:50:22.985Z,54.92
2018-07-03T04:52:53.557Z,54.60
2018-07-03T04:55:23.949Z,54.51
2018-07-03T04:57:54.100Z,54.27
2018-07-03T05:00:24.153Z,54.11
2018-07-03T05:02:54.430Z,54.03
2018-07-03T05:05:24.630Z,53.86
2018-07-03T05:07:55.217Z,53.94
2018-07-03T05:10:25.642Z,54.14
2018-07-03T05:12:56.188Z,54.48
2018-07-03T05:15:26.253Z,54.70
2018-07-03T05:17:57.104Z,54.69
2018-07-03T05:20:28.061Z,54.58
2018-07-03T05:22:58.574Z,54.60
2018-07-03T05:25:28.936Z,54.53
2018-07-03T05:27:59.633Z,54.43
2018-07-03T05:30:30.121Z,54.43
2018-07-03T05:33:06.876Z,54.34
2018-07-03T05:35:37.244Z,54.25
2018-07-03T05:38:08.025Z,54.20
2018-07-03T05:40:38.453Z,54.24
2018-07-03T05:43:09.126Z,54.24
2018-07-03T05:45:40.410Z,54.12
2018-07-03T05:48:11.845Z,54.04
2018-07-03T05:50:42.234Z,53.98
2018-07-03T05:53:12.994Z,53.97
2018-07-03T05:55:43.418Z,53.70
2018-07-03T05:58:13.738Z,53.50
2018-07-03T06:00:44.553Z,53.46
2018-07-03T06:03:15.029Z,53.34
2018-07-03T06:05:45.099Z,53.15
2018-07-03T06:08:16.125Z,52.71
2018-07-03T06:10:46.285Z,52.31
2018-07-03T06:13:16.900Z,51.95
2018-07-03T06:15:47.246Z,51.59
2018-07-03T06:18:17.368Z,51.27
2018-07-03T06:20:47.361Z,50.85
2018-07-03T06:23:17.673Z,50.28
2018-07-03T06:25:47.729Z,49.82
2018-07-03T06:28:18.316Z,49.40
2018-07-03T06:30:49.167Z,49.02
2018-07-03T06:33:19.261Z,48.74
2018-07-03T06:35:49.321Z,48.29
2018-07-03T06:38:20.017Z,48.08
2018-07-03T06:40:50.192Z,47.73
2018-07-03T06:43:20.712Z,47.36
2018-07-03T06:45:51.568Z,46.96
2018-07-03T06:48:21.689Z,46.62
2018-07-03T06:50:52.481Z,46.51
2018-07-03T06:53:26.697Z,46.43
2018-07-03T06:55:57.529Z,46.41
2018-07-03T06:58:27.839Z,45.74
2018-07-03T07:00:57.940Z,45.25
2018-07-03T07:03:30.341Z,45.27
2018-07-03T07:06:00.862Z,44.56
2018-07-03T07:08:31.012Z,44.64
2018-07-03T07:11:01.464Z,44.13
2018-07-03T07:13:34.553Z,43.34
2018-07-03T07:16:04.956Z,42.48
2018-07-03T07:18:35.029Z,41.35
2018-07-03T07:21:05.132Z,40.92
2018-07-03T07:23:35.536Z,39.72
2018-07-03T07:26:05.717Z,38.83
2018-07-03T07:28:36.681Z,38.58
2018-07-03T07:31:07.002Z,38.14
2018-07-03T07:33:37.049Z,37.15
2018-07-03T07:36:07.353Z,36.76
2018-07-03T07:38:37.717Z,35.51
2018-07-03T07:41:07.806Z,34.69
2018-07-03T07:43:37.924Z,34.37
2018-07-03T07:46:08.261Z,34.41
2018-07-03T07:48:38.307Z,34.89
2018-07-03T07:51:08.705Z,33.80
2018-07-03T07:53:39.053Z,32.45
2018-07-03T07:56:09.121Z,32.21
2018-07-03T07:58:39.177Z,32.37
2018-07-03T08:01:09.916Z,31.81
2018-07-03T08:03:40.025Z,32.19
2018-07-03T08:06:10.257Z,31.60
2018-07-03T08:08:40.561Z,30.04
2018-07-03T08:11:11.033Z,31.17
2018-07-03T08:13:41.065Z,31.19
2018-07-03T08:16:11.430Z,30.29
2018-07-03T08:18:41.464Z,29.62
2018-07-03T08:21:11.968Z,29.21
2018-07-03T08:23:43.319Z,29.36
2018-07-03T08:26:13.839Z,29.58
2018-07-03T08:28:43.884Z,29.34
2018-07-03T08:31:14.225Z,29.27
2018-07-03T08:33:44.284Z,28.70
2018-07-03T08:36:14.305Z,28.64
2018-07-03T08:38:45.078Z,27.86
2018-07-03T08:41:15.136Z,27.15
2018-07-03T08:43:45.196Z,27.57
2018-07-03T08:46:15.644Z,26.13
2018-07-03T08:48:45.989Z,26.29
2018-07-03T08:51:15.991Z,26.24
2018-07-03T08:53:46.887Z,25.87
2018-07-03T08:56:16.986Z,26.19
2018-07-03T08:58:47.392Z,26.26
2018-07-03T09:01:17.808Z,26.47
2018-07-03T09:03:49.355Z,26.45
2018-07-03T09:06:19.793Z,25.49
2018-07-03T09:08:50.060Z,25.92
2018-07-03T09:11:23.043Z,25.15
2018-07-03T09:13:53.129Z,25.25
2018-07-03T09:16:23.673Z,25.19
2018-07-03T09:18:54.057Z,25.60
2018-07-03T09:21:24.168Z,24.50
2018-07-03T09:23:54.579Z,24.35
2018-07-03T09:26:24.648Z,25.14
2018-07-03T09:28:54.941Z,24.40
2018-07-03T09:31:25.289Z,24.17
2018-07-03T09:33:55.402Z,24.45
2018-07-03T09:36:25.510Z,24.11
2018-07-03T09:38:55.917Z,23.82
2018-07-03T09:41:25.944Z,23.17
2018-07-03T09:43:55.996Z,23.28
2018-07-03T09:46:26.556Z,23.52
2018-07-03T09:48:56.668Z,22.96
2018-07-03T09:51:26.808Z,23.26
2018-07-03T09:53:57.685Z,23.36
2018-07-03T09:56:27.713Z,23.13
2018-07-03T09:58:57.739Z,22.62
2018-07-03T10:01:28.102Z,22.52
2018-07-03T10:03:58.176Z,22.29
2018-07-03T10:06:28.264Z,21.79
2018-07-03T10:08:58.600Z,22.02
2018-07-03T10:11:28.671Z,21.23
2018-07-03T10:13:58.855Z,20.71
2018-07-03T10:16:33.030Z,21.06
2018-07-03T10:19:03.273Z,21.28
2018-07-03T10:21:37.029Z,21.42
2018-07-03T10:24:07.112Z,20.76
2018-07-03T10:26:38.350Z,21.08
2018-07-03T10:29:11.157Z,21.04
2018-07-03T10:31:48.750Z,20.13
2018-07-03T10:34:19.530Z,20.64
2018-07-03T10:36:49.658Z,20.71
2018-07-03T10:39:20.185Z,20.32
2018-07-03T10:41:50.549Z,20.68
2018-07-03T10:44:20.612Z,20.16
2018-07-03T10:46:50.685Z,19.96
2018-07-03T10:49:21.320Z,20.26
2018-07-03T10:51:51.463Z,20.25
2018-07-03T10:54:21.582Z,20.09
2018-07-03T10:56:52.325Z,19.97
2018-07-03T10:59:22.903Z,19.63
2018-07-03T11:01:54.329Z,19.67
2018-07-03T11:04:25.080Z,19.55
2018-07-03T11:06:55.416Z,19.53
2018-07-03T11:09:25.421Z,19.21
2018-07-03T11:11:55.813Z,19.72
2018-07-03T11:14:25.951Z,19.17
2018-07-03T11:16:56.095Z,18.63
2018-07-03T11:19:26.389Z,19.04
2018-07-03T11:21:56.548Z,19.23
2018-07-03T11:24:26.656Z,19.59
2018-07-03T11:26:57.315Z,18.69
2018-07-03T11:29:27.381Z,17.96
2018-07-03T11:31:57.457Z,18.05
2018-07-03T11:34:27.821Z,18.76
2018-07-03T11:36:57.914Z,19.01
2018-07-03T11:39:28.077Z,19.44
2018-07-03T11:41:58.523Z,18.87
2018-07-03T11:44:28.589Z,19.22
2018-07-03T11:46:58.649Z,18.81
2018-07-03T11:49:33.150Z,18.13
2018-07-03T11:52:03.653Z,18.79
2018-07-03T11:54:34.576Z,18.02
2018-07-03T11:57:04.670Z,18.64
2018-07-03T11:59:34.973Z,18.28
2018-07-03T12:02:05.517Z,18.17
2018-07-03T12:04:36.020Z,18.07
2018-07-03T12:07:06.130Z,18.58
2018-07-03T12:09:36.497Z,17.44
2018-07-03T12:12:06.844Z,17.85
2018-07-03T12:14:36.905Z,16.71
2018-07-03T12:17:07.377Z,17.19
2018-07-03T12:19:37.421Z,18.10
2018-07-03T12:22:07.624Z,18.24
2018-07-03T12:24:38.064Z,18.11
2018-07-03T12:27:08.428Z,18.75
2018-07-03T12:29:38.669Z,18.43
2018-07-03T12:32:09.166Z,18.13
2018-07-03T12:34:39.388Z,17.78
2018-07-03T12:37:09.613Z,16.53
2018-07-03T12:39:40.428Z,17.48
2018-07-03T12:42:11.642Z,18.05
2018-07-03T12:44:41.708Z,17.74
2018-07-03T12:47:12.149Z,17.51
2018-07-03T12:49:42.276Z,17.42
2018-07-03T12:52:12.325Z,17.06
2018-07-03T12:54:42.679Z,16.98
2018-07-03T12:57:13.162Z,16.54
2018-07-03T12:59:43.236Z,15.53
2018-07-03T13:02:13.708Z,16.64
2018-07-03T13:04:43.835Z,16.42
2018-07-03T13:07:13.908Z,16.92
2018-07-03T13:09:44.313Z,16.06
2018-07-03T13:12:14.402Z,16.47
2018-07-03T13:14:44.543Z,16.83
2018-07-03T13:17:15.413Z,17.19
2018-07-03T13:19:45.865Z,17.45
2018-07-03T13:22:16.023Z,17.78
2018-07-03T13:24:46.460Z,17.54
2018-07-03T13:27:16.600Z,17.50
2018-07-03T13:29:47.206Z,17.46
2018-07-03T13:32:17.598Z,17.61
2018-07-03T13:34:47.668Z,17.49
2018-07-03T13:37:17.902Z,17.03
2018-07-03T13:39:48.478Z,17.07
2018-07-03T13:42:18.734Z,16.99
2018-07-03T13:44:48.880Z,16.09
2018-07-03T13:47:19.220Z,17.47
2018-07-03T13:49:49.429Z,16.74
2018-07-03T13:52:19.475Z,16.37
2018-07-03T13:54:49.892Z,15.77
2018-07-03T13:57:20.164Z,16.69
2018-07-03T13:59:50.456Z,16.03
2018-07-03T14:02:20.960Z,16.22
2018-07-03T14:04:51.060Z,16.37
2018-07-03T14:07:21.153Z,15.92
2018-07-03T14:09:51.505Z,16.52
2018-07-03T14:12:21.616Z,16.44
2018-07-03T14:14:52.133Z,16.71
2018-07-03T14:17:22.714Z,16.79
2018-07-03T14:19:52.979Z,16.72
2018-07-03T14:22:23.081Z,17.27
2018-07-03T14:24:53.486Z,16.52
2018-07-03T14:27:23.570Z,17.05
2018-07-03T14:29:53.669Z,16.77
2018-07-03T14:32:24.017Z,17.67
2018-07-03T14:34:54.102Z,17.76
2018-07-03T14:37:25.095Z,17.28
2018-07-03T14:39:55.659Z,17.59
2018-07-03T14:42:25.685Z,17.47
2018-07-03T14:44:55.787Z,16.79
2018-07-03T14:47:26.160Z,16.85
2018-07-03T14:49:56.213Z,16.97
2018-07-03T14:52:26.247Z,16.61
2018-07-03T14:54:56.718Z,16.72
2018-07-03T14:57:26.811Z,16.78
2018-07-03T14:59:56.884Z,17.21
2018-07-03T15:02:27.477Z,17.44
2018-07-03T15:04:57.559Z,16.96
2018-07-03T15:07:27.661Z,16.01
2018-07-03T15:09:58.304Z,15.96
2018-07-03T15:12:28.361Z,16.82
2018-07-03T15:14:58.549Z,17.03
2018-07-03T15:17:28.868Z,17.14
2018-07-03T15:19:59.940Z,16.75
2018-07-03T15:22:30.837Z,16.17
2018-07-03T15:25:01.191Z,16.79
2018-07-03T15:27:31.407Z,16.80
2018-07-03T15:30:01.633Z,16.83
2018-07-03T15:32:32.252Z,17.01
2018-07-03T15:35:02.657Z,17.11
2018-07-03T15:37:32.798Z,16.46
2018-07-03T15:40:04.112Z,16.75
2018-07-03T15:42:35.765Z,17.03
2018-07-03T15:45:14.997Z,17.03
2018-07-03T15:47:45.332Z,16.43
2018-07-03T15:50:15.897Z,16.64
2018-07-03T15:52:45.960Z,17.18
2018-07-03T15:55:16.018Z,16.56
2018-07-03T15:57:47.032Z,16.90
2018-07-03T16:00:17.077Z,17.14
2018-07-03T16:05:03.970Z,17.24
2018-07-03T16:07:48.746Z,17.18
2018-07-03T16:10:19.241Z,17.48
2018-07-03T16:12:49.851Z,16.93
2018-07-03T16:15:19.910Z,16.88
2018-07-03T16:17:50.303Z,16.49
2018-07-03T16:20:25.185Z,16.85
2018-07-03T16:22:55.322Z,17.04
2018-07-03T16:25:25.944Z,17.58
2018-07-03T16:27:56.057Z,16.77
2018-07-03T16:30:26.125Z,17.08
2018-07-03T16:32:56.481Z,17.56
2018-07-03T16:35:26.674Z,17.33
2018-07-03T16:37:56.928Z,17.41
2018-07-03T16:40:27.245Z,18.30
2018-07-03T16:42:57.300Z,18.39
2018-07-03T16:45:27.444Z,18.13
2018-07-03T16:47:57.881Z,18.23
2018-07-03T16:50:28.025Z,17.64
2018-07-03T16:52:58.188Z,18.12
2018-07-03T16:55:28.577Z,18.40
2018-07-03T16:57:58.932Z,18.58
2018-07-03T17:00:29.597Z,18.63
2018-07-03T17:02:59.969Z,18.69
2018-07-03T17:05:30.108Z,18.23
2018-07-03T17:08:00.739Z,18.24
2018-07-03T17:10:31.921Z,19.20
2018-07-03T17:13:02.758Z,18.96
2018-07-03T17:15:32.969Z,19.14
2018-07-03T17:18:04.418Z,19.27
2018-07-03T17:20:34.712Z,18.68
2018-07-03T17:23:10.746Z,18.74
2018-07-03T17:25:42.083Z,19.08
2018-07-03T17:28:12.935Z,19.20
2018-07-03T17:30:44.548Z,19.16
2018-07-03T17:33:16.432Z,19.14
2018-07-03T17:35:47.383Z,18.97
2018-07-03T17:38:17.946Z,19.02
2018-07-03T17:40:58.186Z,19.42
2018-07-03T17:44:13.877Z,19.15
2018-07-03T17:46:44.113Z,19.71
2018-07-03T17:49:14.576Z,19.41
2018-07-03T17:51:44.753Z,19.62
2018-07-03T17:54:16.142Z,19.57
2018-07-03T17:56:46.612Z,19.48
2018-07-03T17:59:17.188Z,19.77
2018-07-03T18:01:47.317Z,20.06
2018-07-03T18:04:17.748Z,19.83
2018-07-03T18:06:47.928Z,19.90
2018-07-03T18:09:18.920Z,20.90
2018-07-03T18:11:49.141Z,20.11
2018-07-03T18:14:19.182Z,20.01
2018-07-03T18:16:49.399Z,20.27
2018-07-03T18:19:24.645Z,20.15
2018-07-03T18:21:54.796Z,20.65
2018-07-03T18:24:25.550Z,20.84
2018-07-03T18:26:56.108Z,20.73
2018-07-03T18:29:27.190Z,20.48
2018-07-03T18:31:57.791Z,20.48
2018-07-03T18:34:28.032Z,20.25
2018-07-03T18:36:58.229Z,20.51
2018-07-03T18:39:28.644Z,20.75
2018-07-03T18:41:58.852Z,20.80
2018-07-03T18:44:29.029Z,21.29
2018-07-03T18:46:59.933Z,21.28
2018-07-03T18:49:30.689Z,21.90
2018-07-03T18:52:00.856Z,21.58
2018-07-03T18:54:31.480Z,22.13
2018-07-03T18:57:01.699Z,22.14
2018-07-03T18:59:31.904Z,22.16
2018-07-03T19:02:02.573Z,22.29
2018-07-03T19:04:32.894Z,22.43
2018-07-03T19:07:03.072Z,23.00
2018-07-03T19:09:33.468Z,23.21
2018-07-03T19:12:03.841Z,23.40
2018-07-03T19:14:34.055Z,23.67
2018-07-03T19:17:04.568Z,24.46
2018-07-03T19:19:34.763Z,25.06
2018-07-03T19:22:04.976Z,25.47
2018-07-03T19:24:35.493Z,25.87
2018-07-03T19:27:05.905Z,25.64
2018-07-03T19:29:36.706Z,25.90
2018-07-03T19:32:07.345Z,26.13
2018-07-03T19:34:38.003Z,26.47
2018-07-03T19:37:08.224Z,26.68
2018-07-03T19:39:38.623Z,26.91
2018-07-03T19:42:10.035Z,27.08
2018-07-03T19:44:40.481Z,27.34
2018-07-03T19:47:11.222Z,27.23
2018-07-03T19:49:42.244Z,27.57
2018-07-03T19:52:12.628Z,27.64
2018-07-03T19:54:46.906Z,27.77
2018-07-03T19:57:17.280Z,27.98
2018-07-03T19:59:47.348Z,27.79
2018-07-03T20:02:17.553Z,27.83
2018-07-03T20:04:48.008Z,28.02
2018-07-03T20:07:18.037Z,28.31
2018-07-03T20:09:57.449Z,28.31
2018-07-03T20:12:27.921Z,28.30
2018-07-03T20:14:58.074Z,28.60
2018-07-03T20:17:28.948Z,28.76
2018-07-03T20:20:00.233Z,28.87
2018-07-03T20:22:30.365Z,29.00
2018-07-03T20:25:00.468Z,29.19
2018-07-03T20:27:31.045Z,29.42
2018-07-03T20:30:01.134Z,29.80
2018-07-03T20:32:37.496Z,29.95
2018-07-03T20:35:08.170Z,30.08
2018-07-03T20:37:55.099Z,30.29
2018-07-03T20:40:26.871Z,30.42
2018-07-03T20:42:58.028Z,30.49
2018-07-03T20:45:28.155Z,30.62
2018-07-03T20:47:58.472Z,30.75
2018-07-03T20:50:28.756Z,30.85
2018-07-03T20:52:58.877Z,30.99
2018-07-03T20:56:07.808Z,31.04
2018-07-03T20:58:38.296Z,31.17
2018-07-03T21:01:13.624Z,31.34
2018-07-03T21:03:44.157Z,31.42
2018-07-03T21:06:15.358Z,31.38
2018-07-03T21:08:45.228Z,31.40
2018-07-03T21:11:15.474Z,31.35
2018-07-03T21:13:45.217Z,31.35
2018-07-03T21:16:15.504Z,31.45
2018-07-03T21:18:45.574Z,31.55
2018-07-03T21:21:15.298Z,31.64
2018-07-03T21:23:45.989Z,31.91
2018-07-03T21:26:16.091Z,32.06
2018-07-03T21:28:45.894Z,32.22
2018-07-03T21:31:15.698Z,32.43
2018-07-03T21:33:45.730Z,32.63
2018-07-03T21:36:15.581Z,32.87
2018-07-03T21:38:45.293Z,33.05
2018-07-03T21:41:15.311Z,33.23
2018-07-03T21:43:45.055Z,33.29
2018-07-03T21:46:19.782Z,34.38
2018-07-03T21:48:49.813Z,34.59
2018-07-03T21:51:19.554Z,34.70
2018-07-03T21:53:49.332Z,35.00
2018-07-03T21:56:19.358Z,35.21
2018-07-03T21:58:49.681Z,35.25
2018-07-03T22:01:20.022Z,35.27
2018-07-03T22:03:50.117Z,35.40
2018-07-03T22:06:19.836Z,35.75
2018-07-03T22:08:50.149Z,36.12
2018-07-03T22:11:20.611Z,36.21
2018-07-03T22:13:50.911Z,36.41
2018-07-03T22:16:21.279Z,36.36
2018-07-03T22:18:51.535Z,36.19
2018-07-03T22:21:21.257Z,35.94
2018-07-03T22:23:51.337Z,35.89
2018-07-03T22:26:21.310Z,36.12
2018-07-03T22:28:51.002Z,36.45
2018-07-03T22:31:20.766Z,36.68
2018-07-03T22:33:51.669Z,36.96
2018-07-03T22:36:21.597Z,37.31
2018-07-03T22:38:51.342Z,37.67
2018-07-03T22:41:21.357Z,37.96
2018-07-03T22:43:51.134Z,38.33
2018-07-03T22:46:20.889Z,38.67
2018-07-03T22:48:51.554Z,39.07
2018-07-03T22:51:22.221Z,39.34
2018-07-03T22:53:53.154Z,39.54
2018-07-03T22:56:23.062Z,39.70
2018-07-03T22:58:52.925Z,39.89
